sensor_id;sensor_type;location;lat;lon;timestamp;pressure;altitude;pressure_sealevel;temperature
13304;BMP280;6720;51.958;4.540;2022-11-15T00:00:54;100610.94;;;8.74
13304;BMP280;6720;51.958;4.540;2022-11-15T00:03:22;100614.34;;;8.76
13304;BMP280;6720;51.958;4.540;2022-11-15T00:05:49;100606.44;;;8.83
13304;BMP280;6720;51.958;4.540;2022-11-15T00:08:14;100607.25;;;8.87
13304;BMP280;6720;51.958;4.540;2022-11-15T00:10:40;100605.56;;;8.83
13304;BMP280;6720;51.958;4.540;2022-11-15T00:13:15;100590.06;;;8.74
13304;BMP280;6720;51.958;4.540;2022-11-15T00:15:41;100607.38;;;8.78
13304;BMP280;6720;51.958;4.540;2022-11-15T00:18:12;100616.16;;;8.74
13304;BMP280;6720;51.958;4.540;2022-11-15T00:20:37;100601.41;;;8.70
13304;BMP280;6720;51.958;4.540;2022-11-15T00:23:04;100604.84;;;8.73
13304;BMP280;6720;51.958;4.540;2022-11-15T00:25:29;100590.28;;;8.56
13304;BMP280;6720;51.958;4.540;2022-11-15T00:27:56;100599.75;;;8.63
13304;BMP280;6720;51.958;4.540;2022-11-15T00:30:22;100597.19;;;8.60
13304;BMP280;6720;51.958;4.540;2022-11-15T00:32:47;100604.19;;;8.58
13304;BMP280;6720;51.958;4.540;2022-11-15T00:35:12;100591.94;;;8.63
13304;BMP280;6720;51.958;4.540;2022-11-15T00:37:38;100588.47;;;8.61
13304;BMP280;6720;51.958;4.540;2022-11-15T00:40:03;100585.03;;;8.59
13304;BMP280;6720;51.958;4.540;2022-11-15T00:42:29;100583.09;;;8.73
13304;BMP280;6720;51.958;4.540;2022-11-15T00:44:54;100578.72;;;8.73
13304;BMP280;6720;51.958;4.540;2022-11-15T00:47:19;100570.16;;;8.64
13304;BMP280;6720;51.958;4.540;2022-11-15T00:49:45;100578.69;;;8.78
13304;BMP280;6720;51.958;4.540;2022-11-15T00:52:10;100576.13;;;8.75
13304;BMP280;6720;51.958;4.540;2022-11-15T00:54:35;100566.59;;;8.71
13304;BMP280;6720;51.958;4.540;2022-11-15T00:57:01;100569.97;;;8.77
13304;BMP280;6720;51.958;4.540;2022-11-15T00:59:46;100577.69;;;8.86
13304;BMP280;6720;51.958;4.540;2022-11-15T01:02:19;100574.06;;;8.95
13304;BMP280;6720;51.958;4.540;2022-11-15T01:04:44;100579.34;;;8.92
13304;BMP280;6720;51.958;4.540;2022-11-15T01:07:10;100557.66;;;8.87
13304;BMP280;6720;51.958;4.540;2022-11-15T01:09:35;100559.25;;;8.97
13304;BMP280;6720;51.958;4.540;2022-11-15T01:12:01;100566.09;;;9.07
13304;BMP280;6720;51.958;4.540;2022-11-15T01:14:27;100551.38;;;9.00
13304;BMP280;6720;51.958;4.540;2022-11-15T01:16:52;100564.34;;;9.04
13304;BMP280;6720;51.958;4.540;2022-11-15T01:19:17;100558.25;;;9.07
13304;BMP280;6720;51.958;4.540;2022-11-15T01:21:43;100551.25;;;9.09
13304;BMP280;6720;51.958;4.540;2022-11-15T01:24:11;100544.31;;;9.08
13304;BMP280;6720;51.958;4.540;2022-11-15T01:26:37;100562.38;;;9.20
13304;BMP280;6720;51.958;4.540;2022-11-15T01:29:03;100545.75;;;9.25
13304;BMP280;6720;51.958;4.540;2022-11-15T01:31:28;100543.94;;;9.29
13304;BMP280;6720;51.958;4.540;2022-11-15T01:33:54;100542.22;;;9.28
13304;BMP280;6720;51.958;4.540;2022-11-15T01:36:21;100535.28;;;9.27
13304;BMP280;6720;51.958;4.540;2022-11-15T01:38:55;100530.06;;;9.27
13304;BMP280;6720;51.958;4.540;2022-11-15T01:41:24;100540.47;;;9.30
13304;BMP280;6720;51.958;4.540;2022-11-15T01:43:53;100536.06;;;9.32
13304;BMP280;6720;51.958;4.540;2022-11-15T01:46:24;100523.13;;;9.26
13304;BMP280;6720;51.958;4.540;2022-11-15T01:48:51;100521.25;;;9.34
13304;BMP280;6720;51.958;4.540;2022-11-15T01:51:19;100507.28;;;9.35
13304;BMP280;6720;51.958;4.540;2022-11-15T01:53:48;100505.50;;;9.37
13304;BMP280;6720;51.958;4.540;2022-11-15T01:56:17;100520.91;;;9.52
13304;BMP280;6720;51.958;4.540;2022-11-15T01:58:43;100534.84;;;9.51
13304;BMP280;6720;51.958;4.540;2022-11-15T02:01:11;100525.13;;;9.59
13304;BMP280;6720;51.958;4.540;2022-11-15T02:03:52;100523.44;;;9.56
13304;BMP280;6720;51.958;4.540;2022-11-15T02:06:21;100493.06;;;9.51
13304;BMP280;6720;51.958;4.540;2022-11-15T02:08:46;100499.78;;;9.64
13304;BMP280;6720;51.958;4.540;2022-11-15T02:11:12;100495.63;;;9.54
13304;BMP280;6720;51.958;4.540;2022-11-15T02:13:37;100496.28;;;9.65
13304;BMP280;6720;51.958;4.540;2022-11-15T02:16:13;100495.34;;;9.67
13304;BMP280;6720;51.958;4.540;2022-11-15T02:18:50;100492.66;;;9.72
13304;BMP280;6720;51.958;4.540;2022-11-15T02:21:43;100491.88;;;9.67
13304;BMP280;6720;51.958;4.540;2022-11-15T02:26:52;100462.28;;;9.66
13304;BMP280;6720;51.958;4.540;2022-11-15T02:32:44;100480.34;;;9.77
13304;BMP280;6720;51.958;4.540;2022-11-15T02:35:20;100471.66;;;9.76
13304;BMP280;6720;51.958;4.540;2022-11-15T02:37:54;100473.09;;;9.92
13304;BMP280;6720;51.958;4.540;2022-11-15T02:42:51;100449.66;;;9.86
13304;BMP280;6720;51.958;4.540;2022-11-15T02:45:44;100458.09;;;10.00
13304;BMP280;6720;51.958;4.540;2022-11-15T02:48:10;100459.63;;;10.12
13304;BMP280;6720;51.958;4.540;2022-11-15T02:50:37;100460.41;;;10.17
13304;BMP280;6720;51.958;4.540;2022-11-15T02:53:03;100458.59;;;10.19
13304;BMP280;6720;51.958;4.540;2022-11-15T03:00:47;100452.16;;;10.35
13304;BMP280;6720;51.958;4.540;2022-11-15T03:11:14;100459.50;;;10.56
13304;BMP280;6720;51.958;4.540;2022-11-15T03:13:57;100440.44;;;10.51
13304;BMP280;6720;51.958;4.540;2022-11-15T03:19:19;100433.19;;;10.63
13304;BMP280;6720;51.958;4.540;2022-11-15T03:21:46;100447.69;;;10.76
13304;BMP280;6720;51.958;4.540;2022-11-15T03:24:14;100431.19;;;10.73
13304;BMP280;6720;51.958;4.540;2022-11-15T03:26:44;100432.84;;;10.77
13304;BMP280;6720;51.958;4.540;2022-11-15T03:29:17;100409.34;;;10.74
13304;BMP280;6720;51.958;4.540;2022-11-15T03:31:47;100433.44;;;10.88
13304;BMP280;6720;51.958;4.540;2022-11-15T03:36:45;100441.06;;;10.97
13304;BMP280;6720;51.958;4.540;2022-11-15T03:39:12;100425.50;;;10.91
13304;BMP280;6720;51.958;4.540;2022-11-15T03:41:44;100441.84;;;11.00
13304;BMP280;6720;51.958;4.540;2022-11-15T03:44:31;100452.13;;;11.08
13304;BMP280;6720;51.958;4.540;2022-11-15T03:47:07;100453.75;;;11.13
13304;BMP280;6720;51.958;4.540;2022-11-15T03:49:36;100455.41;;;11.16
13304;BMP280;6720;51.958;4.540;2022-11-15T03:52:04;100455.38;;;11.17
13304;BMP280;6720;51.958;4.540;2022-11-15T03:54:30;100443.88;;;11.23
13304;BMP280;6720;51.958;4.540;2022-11-15T03:56:56;100440.59;;;11.15
13304;BMP280;6720;51.958;4.540;2022-11-15T03:59:21;100435.28;;;11.18
13304;BMP280;6720;51.958;4.540;2022-11-15T04:01:47;100436.03;;;11.23
13304;BMP280;6720;51.958;4.540;2022-11-15T04:04:12;100433.34;;;11.26
13304;BMP280;6720;51.958;4.540;2022-11-15T04:06:38;100435.03;;;11.27
13304;BMP280;6720;51.958;4.540;2022-11-15T04:09:03;100429.81;;;11.27
13304;BMP280;6720;51.958;4.540;2022-11-15T04:11:29;100431.38;;;11.34
13304;BMP280;6720;51.958;4.540;2022-11-15T04:13:54;100436.59;;;11.34
13304;BMP280;6720;51.958;4.540;2022-11-15T04:16:20;100425.09;;;11.40
13304;BMP280;6720;51.958;4.540;2022-11-15T04:18:45;100430.16;;;11.46
13304;BMP280;6720;51.958;4.540;2022-11-15T04:21:30;100423.09;;;11.49
13304;BMP280;6720;51.958;4.540;2022-11-15T04:24:14;100423.03;;;11.52
13304;BMP280;6720;51.958;4.540;2022-11-15T04:26:40;100410.78;;;11.51
13304;BMP280;6720;51.958;4.540;2022-11-15T04:29:05;100405.47;;;11.54
13304;BMP280;6720;51.958;4.540;2022-11-15T04:31:49;100408.09;;;11.54
13304;BMP280;6720;51.958;4.540;2022-11-15T04:34:14;100413.19;;;11.60
13304;BMP280;6720;51.958;4.540;2022-11-15T04:36:40;100412.50;;;11.54
13304;BMP280;6720;51.958;4.540;2022-11-15T04:39:24;100426.28;;;11.62
13304;BMP280;6720;51.958;4.540;2022-11-15T04:41:50;100424.50;;;11.62
13304;BMP280;6720;51.958;4.540;2022-11-15T04:44:16;100416.66;;;11.61
13304;BMP280;6720;51.958;4.540;2022-11-15T04:46:41;100427.03;;;11.65
13304;BMP280;6720;51.958;4.540;2022-11-15T04:49:07;100430.50;;;11.67
13304;BMP280;6720;51.958;4.540;2022-11-15T04:51:32;100435.63;;;11.70
13304;BMP280;6720;51.958;4.540;2022-11-15T04:53:58;100444.41;;;11.69
13304;BMP280;6720;51.958;4.540;2022-11-15T04:56:24;100439.88;;;11.74
13304;BMP280;6720;51.958;4.540;2022-11-15T04:58:50;100435.63;;;11.70
13304;BMP280;6720;51.958;4.540;2022-11-15T05:01:15;100437.44;;;11.68
13304;BMP280;6720;51.958;4.540;2022-11-15T05:03:42;100451.03;;;11.82
13304;BMP280;6720;51.958;4.540;2022-11-15T05:06:26;100438.81;;;11.81
13304;BMP280;6720;51.958;4.540;2022-11-15T05:08:51;100458.00;;;11.83
13304;BMP280;6720;51.958;4.540;2022-11-15T05:11:17;100458.81;;;11.85
13304;BMP280;6720;51.958;4.540;2022-11-15T05:13:42;100454.25;;;11.92
13304;BMP280;6720;51.958;4.540;2022-11-15T05:16:08;100451.66;;;11.92
13304;BMP280;6720;51.958;4.540;2022-11-15T05:18:33;100454.97;;;11.97
13304;BMP280;6720;51.958;4.540;2022-11-15T05:21:07;100440.44;;;11.85
13304;BMP280;6720;51.958;4.540;2022-11-15T05:23:32;100443.63;;;11.96
13304;BMP280;6720;51.958;4.540;2022-11-15T05:26:05;100444.63;;;11.92
13304;BMP280;6720;51.958;4.540;2022-11-15T05:28:31;100438.44;;;11.93
13304;BMP280;6720;51.958;4.540;2022-11-15T05:31:05;100429.88;;;11.88
13304;BMP280;6720;51.958;4.540;2022-11-15T05:33:31;100448.78;;;11.99
13304;BMP280;6720;51.958;4.540;2022-11-15T05:36:04;100425.22;;;11.98
13304;BMP280;6720;51.958;4.540;2022-11-15T05:38:31;100434.94;;;11.94
13304;BMP280;6720;51.958;4.540;2022-11-15T05:40:56;100435.75;;;11.96
13304;BMP280;6720;51.958;4.540;2022-11-15T05:43:22;100438.22;;;12.02
13304;BMP280;6720;51.958;4.540;2022-11-15T05:45:48;100437.66;;;11.91
13304;BMP280;6720;51.958;4.540;2022-11-15T05:48:14;100443.81;;;11.90
13304;BMP280;6720;51.958;4.540;2022-11-15T05:50:43;100443.63;;;11.96
13304;BMP280;6720;51.958;4.540;2022-11-15T05:53:10;100430.16;;;11.79
13304;BMP280;6720;51.958;4.540;2022-11-15T05:55:38;100440.28;;;11.91
13304;BMP280;6720;51.958;4.540;2022-11-15T05:58:04;100442.97;;;11.88
13304;BMP280;6720;51.958;4.540;2022-11-15T06:00:29;100449.03;;;11.92
13304;BMP280;6720;51.958;4.540;2022-11-15T06:02:54;100446.47;;;11.89
13304;BMP280;6720;51.958;4.540;2022-11-15T06:05:20;100455.19;;;11.89
13304;BMP280;6720;51.958;4.540;2022-11-15T06:07:45;100455.28;;;11.86
13304;BMP280;6720;51.958;4.540;2022-11-15T06:10:11;100459.50;;;11.92
13304;BMP280;6720;51.958;4.540;2022-11-15T06:12:36;100461.25;;;11.91
13304;BMP280;6720;51.958;4.540;2022-11-15T06:15:01;100463.06;;;11.89
13304;BMP280;6720;51.958;4.540;2022-11-15T06:17:28;100461.41;;;11.85
13304;BMP280;6720;51.958;4.540;2022-11-15T06:19:54;100464.09;;;11.84
13304;BMP280;6720;51.958;4.540;2022-11-15T06:22:19;100468.91;;;11.68
13304;BMP280;6720;51.958;4.540;2022-11-15T06:24:44;100467.09;;;11.70
13304;BMP280;6720;51.958;4.540;2022-11-15T06:27:11;100476.78;;;11.68
13304;BMP280;6720;51.958;4.540;2022-11-15T06:29:36;100465.69;;;11.57
13304;BMP280;6720;51.958;4.540;2022-11-15T06:32:02;100469.19;;;11.58
13304;BMP280;6720;51.958;4.540;2022-11-15T06:34:27;100469.09;;;11.59
13304;BMP280;6720;51.958;4.540;2022-11-15T06:36:52;100465.75;;;11.54
13304;BMP280;6720;51.958;4.540;2022-11-15T06:39:18;100468.50;;;11.50
13304;BMP280;6720;51.958;4.540;2022-11-15T06:41:43;100464.22;;;11.46
13304;BMP280;6720;51.958;4.540;2022-11-15T06:44:08;100462.47;;;11.46
13304;BMP280;6720;51.958;4.540;2022-11-15T06:46:34;100469.41;;;11.49
13304;BMP280;6720;51.958;4.540;2022-11-15T06:48:59;100476.44;;;11.48
13304;BMP280;6720;51.958;4.540;2022-11-15T06:51:25;100486.84;;;11.50
13304;BMP280;6720;51.958;4.540;2022-11-15T06:53:50;100480.06;;;11.43
13304;BMP280;6720;51.958;4.540;2022-11-15T06:56:15;100484.44;;;11.42
13304;BMP280;6720;51.958;4.540;2022-11-15T06:58:41;100480.09;;;11.41
13304;BMP280;6720;51.958;4.540;2022-11-15T07:01:09;100478.13;;;11.49
13304;BMP280;6720;51.958;4.540;2022-11-15T07:03:36;100475.59;;;11.46
13304;BMP280;6720;51.958;4.540;2022-11-15T07:06:03;100477.38;;;11.44
13304;BMP280;6720;51.958;4.540;2022-11-15T07:08:29;100484.44;;;11.42
13304;BMP280;6720;51.958;4.540;2022-11-15T07:10:58;100462.13;;;11.27
13304;BMP280;6720;51.958;4.540;2022-11-15T07:13:25;100494.97;;;11.41
13304;BMP280;6720;51.958;4.540;2022-11-15T07:15:51;100476.72;;;11.36
13304;BMP280;6720;51.958;4.540;2022-11-15T07:18:16;100478.34;;;11.40
13304;BMP280;6720;51.958;4.540;2022-11-15T07:20:42;100482.06;;;11.33
13304;BMP280;6720;51.958;4.540;2022-11-15T07:23:07;100479.25;;;11.39
13304;BMP280;6720;51.958;4.540;2022-11-15T07:25:32;100475.72;;;11.40
13304;BMP280;6720;51.958;4.540;2022-11-15T07:27:59;100488.63;;;11.49
13304;BMP280;6720;51.958;4.540;2022-11-15T07:30:25;100485.25;;;11.44
13304;BMP280;6720;51.958;4.540;2022-11-15T07:32:59;100472.81;;;11.52
13304;BMP280;6720;51.958;4.540;2022-11-15T07:35:26;100472.06;;;11.47
13304;BMP280;6720;51.958;4.540;2022-11-15T07:38:00;100466.16;;;11.39
13304;BMP280;6720;51.958;4.540;2022-11-15T07:40:30;100479.13;;;11.45
13304;BMP280;6720;51.958;4.540;2022-11-15T07:43:04;100479.06;;;11.48
13304;BMP280;6720;51.958;4.540;2022-11-15T07:45:29;100460.78;;;11.45
13304;BMP280;6720;51.958;4.540;2022-11-15T07:47:55;100464.19;;;11.47
13304;BMP280;6720;51.958;4.540;2022-11-15T07:50:22;100472.91;;;11.49
13304;BMP280;6720;51.958;4.540;2022-11-15T07:52:53;100467.81;;;11.43
13304;BMP280;6720;51.958;4.540;2022-11-15T07:55:18;100450.69;;;11.30
13304;BMP280;6720;51.958;4.540;2022-11-15T07:57:44;100466.00;;;11.45
13304;BMP280;6720;51.958;4.540;2022-11-15T08:00:09;100465.84;;;11.51
13304;BMP280;6720;51.958;4.540;2022-11-15T08:02:35;100440.81;;;11.40
13304;BMP280;6720;51.958;4.540;2022-11-15T08:05:00;100447.09;;;11.34
13304;BMP280;6720;51.958;4.540;2022-11-15T08:07:29;100431.41;;;11.32
13304;BMP280;6720;51.958;4.540;2022-11-15T08:09:55;100453.72;;;11.47
13304;BMP280;6720;51.958;4.540;2022-11-15T08:12:20;100445.13;;;11.42
13304;BMP280;6720;51.958;4.540;2022-11-15T08:14:45;100444.22;;;11.43
13304;BMP280;6720;51.958;4.540;2022-11-15T08:17:11;100445.13;;;11.42
13304;BMP280;6720;51.958;4.540;2022-11-15T08:19:36;100445.63;;;11.56
13304;BMP280;6720;51.958;4.540;2022-11-15T08:22:01;100444.72;;;11.57
13304;BMP280;6720;51.958;4.540;2022-11-15T08:24:30;100427.28;;;11.56
13304;BMP280;6720;51.958;4.540;2022-11-15T08:26:55;100437.53;;;11.65
13304;BMP280;6720;51.958;4.540;2022-11-15T08:29:21;100436.00;;;11.55
13304;BMP280;6720;51.958;4.540;2022-11-15T08:31:46;100423.66;;;11.62
13304;BMP280;6720;51.958;4.540;2022-11-15T08:34:12;100427.16;;;11.59
13304;BMP280;6720;51.958;4.540;2022-11-15T08:36:37;100424.38;;;11.67
13304;BMP280;6720;51.958;4.540;2022-11-15T08:39:02;100413.03;;;11.66
13304;BMP280;6720;51.958;4.540;2022-11-15T08:41:33;100400.66;;;11.71
13304;BMP280;6720;51.958;4.540;2022-11-15T08:44:02;100415.31;;;11.78
13304;BMP280;6720;51.958;4.540;2022-11-15T08:46:28;100412.50;;;11.84
13304;BMP280;6720;51.958;4.540;2022-11-15T08:48:54;100421.16;;;11.88
13304;BMP280;6720;51.958;4.540;2022-11-15T08:51:19;100410.59;;;11.89
13304;BMP280;6720;51.958;4.540;2022-11-15T08:53:45;100418.84;;;12.06
13304;BMP280;6720;51.958;4.540;2022-11-15T08:56:13;100418.09;;;12.03
13304;BMP280;6720;51.958;4.540;2022-11-15T08:58:39;100414.69;;;12.28
13304;BMP280;6720;51.958;4.540;2022-11-15T09:01:05;100416.09;;;12.38
13304;BMP280;6720;51.958;4.540;2022-11-15T09:03:30;100417.63;;;12.45
13304;BMP280;6720;51.958;4.540;2022-11-15T09:06:00;100425.59;;;12.96
13304;BMP280;6720;51.958;4.540;2022-11-15T09:08:30;100412.03;;;13.09
13304;BMP280;6720;51.958;4.540;2022-11-15T09:10:56;100399.63;;;13.14
13304;BMP280;6720;51.958;4.540;2022-11-15T09:13:21;100412.47;;;13.94
13304;BMP280;6720;51.958;4.540;2022-11-15T09:15:47;100408.69;;;14.68
13304;BMP280;6720;51.958;4.540;2022-11-15T09:18:12;100415.63;;;15.33
13304;BMP280;6720;51.958;4.540;2022-11-15T09:20:38;100411.69;;;15.43
13304;BMP280;6720;51.958;4.540;2022-11-15T09:23:04;100419.53;;;16.40
13304;BMP280;6720;51.958;4.540;2022-11-15T09:25:30;100419.41;;;16.43
13304;BMP280;6720;51.958;4.540;2022-11-15T09:27:56;100425.38;;;16.28
13304;BMP280;6720;51.958;4.540;2022-11-15T09:30:22;100428.94;;;16.82
13304;BMP280;6720;51.958;4.540;2022-11-15T09:32:47;100423.19;;;17.25
13304;BMP280;6720;51.958;4.540;2022-11-15T09:35:13;100421.81;;;16.47
13304;BMP280;6720;51.958;4.540;2022-11-15T09:37:39;100411.78;;;15.80
13304;BMP280;6720;51.958;4.540;2022-11-15T09:40:08;100416.81;;;16.04
13304;BMP280;6720;51.958;4.540;2022-11-15T09:42:52;100412.06;;;15.54
13304;BMP280;6720;51.958;4.540;2022-11-15T09:50:45;100400.66;;;15.92
13304;BMP280;6720;51.958;4.540;2022-11-15T09:53:24;100367.84;;;15.79
13304;BMP280;6720;51.958;4.540;2022-11-15T09:56:00;100382.13;;;15.55
13304;BMP280;6720;51.958;4.540;2022-11-15T09:58:35;100357.00;;;15.06
13304;BMP280;6720;51.958;4.540;2022-11-15T10:01:07;100386.34;;;14.99
13304;BMP280;6720;51.958;4.540;2022-11-15T10:03:35;100380.16;;;15.40
13304;BMP280;6720;51.958;4.540;2022-11-15T10:06:04;100370.41;;;15.42
13304;BMP280;6720;51.958;4.540;2022-11-15T10:11:14;100371.03;;;15.67
13304;BMP280;6720;51.958;4.540;2022-11-15T10:13:43;100365.91;;;15.44
13304;BMP280;6720;51.958;4.540;2022-11-15T10:16:36;100382.25;;;15.72
13304;BMP280;6720;51.958;4.540;2022-11-15T10:24:22;100356.06;;;15.67
13304;BMP280;6720;51.958;4.540;2022-11-15T10:26:54;100350.47;;;15.55
13304;BMP280;6720;51.958;4.540;2022-11-15T10:29:21;100353.66;;;15.81
13304;BMP280;6720;51.958;4.540;2022-11-15T10:31:47;100336.38;;;15.36
13304;BMP280;6720;51.958;4.540;2022-11-15T10:34:15;100340.84;;;15.14
13304;BMP280;6720;51.958;4.540;2022-11-15T10:36:54;100337.47;;;15.30
13304;BMP280;6720;51.958;4.540;2022-11-15T10:39:20;100332.28;;;15.49
13304;BMP280;6720;51.958;4.540;2022-11-15T10:41:45;100319.94;;;15.29
13304;BMP280;6720;51.958;4.540;2022-11-15T10:47:07;100328.19;;;14.82
13304;BMP280;6720;51.958;4.540;2022-11-15T10:49:54;100319.13;;;14.89
13304;BMP280;6720;51.958;4.540;2022-11-15T10:52:20;100312.25;;;14.85
13304;BMP280;6720;51.958;4.540;2022-11-15T10:57:38;100319.75;;;14.73
13304;BMP280;6720;51.958;4.540;2022-11-15T11:00:26;100301.19;;;14.97
13304;BMP280;6720;51.958;4.540;2022-11-15T11:02:57;100305.25;;;15.44
13304;BMP280;6720;51.958;4.540;2022-11-15T11:05:36;100303.00;;;15.35
13304;BMP280;6720;51.958;4.540;2022-11-15T11:08:05;100296.50;;;15.03
13304;BMP280;6720;51.958;4.540;2022-11-15T11:10:31;100295.78;;;15.00
13304;BMP280;6720;51.958;4.540;2022-11-15T11:13:12;100286.56;;;14.69
13304;BMP280;6720;51.958;4.540;2022-11-15T11:15:39;100284.19;;;14.63
13304;BMP280;6720;51.958;4.540;2022-11-15T11:18:07;100267.31;;;14.67
13304;BMP280;6720;51.958;4.540;2022-11-15T11:20:40;100266.84;;;14.58
13304;BMP280;6720;51.958;4.540;2022-11-15T11:45:21;100224.25;;;14.89
13304;BMP280;6720;51.958;4.540;2022-11-15T11:48:11;100227.94;;;14.85
13304;BMP280;6720;51.958;4.540;2022-11-15T11:50:37;100219.03;;;15.26
13304;BMP280;6720;51.958;4.540;2022-11-15T11:53:11;100209.25;;;15.48
13304;BMP280;6720;51.958;4.540;2022-11-15T11:55:44;100206.88;;;15.96
13304;BMP280;6720;51.958;4.540;2022-11-15T11:58:37;100200.97;;;16.08
13304;BMP280;6720;51.958;4.540;2022-11-15T12:01:17;100192.50;;;15.84
13304;BMP280;6720;51.958;4.540;2022-11-15T12:04:30;100202.09;;;15.50
13304;BMP280;6720;51.958;4.540;2022-11-15T12:07:11;100194.88;;;15.53
13304;BMP280;6720;51.958;4.540;2022-11-15T12:09:47;100184.81;;;15.80
13304;BMP280;6720;51.958;4.540;2022-11-15T12:12:43;100181.00;;;15.85
13304;BMP280;6720;51.958;4.540;2022-11-15T12:17:36;100175.22;;;16.30
13304;BMP280;6720;51.958;4.540;2022-11-15T12:20:13;100155.44;;;16.21
13304;BMP280;6720;51.958;4.540;2022-11-15T12:22:55;100160.91;;;16.34
13304;BMP280;6720;51.958;4.540;2022-11-15T12:27:59;100159.34;;;15.96
13304;BMP280;6720;51.958;4.540;2022-11-15T12:30:39;100153.25;;;16.12
13304;BMP280;6720;51.958;4.540;2022-11-15T12:33:28;100142.34;;;16.35
13304;BMP280;6720;51.958;4.540;2022-11-15T12:41:21;100140.81;;;16.14
13304;BMP280;6720;51.958;4.540;2022-11-15T12:43:48;100131.94;;;15.98
13304;BMP280;6720;51.958;4.540;2022-11-15T12:46:21;100134.72;;;15.61
13304;BMP280;6720;51.958;4.540;2022-11-15T12:48:51;100122.91;;;15.68
13304;BMP280;6720;51.958;4.540;2022-11-15T12:51:20;100120.13;;;14.99
13304;BMP280;6720;51.958;4.540;2022-11-15T12:53:45;100112.28;;;15.16
13304;BMP280;6720;51.958;4.540;2022-11-15T12:58:47;100101.25;;;15.08
13304;BMP280;6720;51.958;4.540;2022-11-15T13:06:51;100093.91;;;14.96
13304;BMP280;6720;51.958;4.540;2022-11-15T13:12:10;100083.72;;;14.88
13304;BMP280;6720;51.958;4.540;2022-11-15T13:14:46;100084.97;;;14.79
13304;BMP280;6720;51.958;4.540;2022-11-15T13:19:46;100056.00;;;14.61
13304;BMP280;6720;51.958;4.540;2022-11-15T13:22:11;100048.72;;;14.47
13304;BMP280;6720;51.958;4.540;2022-11-15T13:24:56;100064.66;;;14.44
13304;BMP280;6720;51.958;4.540;2022-11-15T13:27:22;100039.00;;;14.29
13304;BMP280;6720;51.958;4.540;2022-11-15T13:29:47;100051.06;;;14.35
13304;BMP280;6720;51.958;4.540;2022-11-15T13:32:15;100039.66;;;14.14
13304;BMP280;6720;51.958;4.540;2022-11-15T13:34:45;100047.50;;;14.16
13304;BMP280;6720;51.958;4.540;2022-11-15T13:39:47;100037.84;;;14.16
13304;BMP280;6720;51.958;4.540;2022-11-15T13:42:18;100026.84;;;14.07
13304;BMP280;6720;51.958;4.540;2022-11-15T13:45:02;100019.84;;;14.06
13304;BMP280;6720;51.958;4.540;2022-11-15T13:47:29;100018.81;;;14.10
13304;BMP280;6720;51.958;4.540;2022-11-15T13:49:58;100019.03;;;14.05
13304;BMP280;6720;51.958;4.540;2022-11-15T13:52:30;99984.91;;;13.84
13304;BMP280;6720;51.958;4.540;2022-11-15T13:55:21;100008.50;;;13.85
13304;BMP280;6720;51.958;4.540;2022-11-15T13:57:54;99999.28;;;13.95
13304;BMP280;6720;51.958;4.540;2022-11-15T14:00:32;99995.22;;;13.88
13304;BMP280;6720;51.958;4.540;2022-11-15T14:03:16;99973.59;;;13.82
13304;BMP280;6720;51.958;4.540;2022-11-15T14:05:42;99967.56;;;13.80
13304;BMP280;6720;51.958;4.540;2022-11-15T14:10:45;99951.53;;;13.84
13304;BMP280;6720;51.958;4.540;2022-11-15T14:13:27;99946.06;;;13.70
13304;BMP280;6720;51.958;4.540;2022-11-15T14:15:52;99956.47;;;13.72
13304;BMP280;6720;51.958;4.540;2022-11-15T14:21:08;99949.72;;;13.66
13304;BMP280;6720;51.958;4.540;2022-11-15T14:23:34;99945.97;;;13.72
13304;BMP280;6720;51.958;4.540;2022-11-15T14:25:59;99935.25;;;13.76
13304;BMP280;6720;51.958;4.540;2022-11-15T14:30:52;99920.53;;;13.72
13304;BMP280;6720;51.958;4.540;2022-11-15T14:33:31;99922.09;;;13.76
13304;BMP280;6720;51.958;4.540;2022-11-15T14:36:03;99923.78;;;13.77
13304;BMP280;6720;51.958;4.540;2022-11-15T14:38:28;99916.25;;;13.70
13304;BMP280;6720;51.958;4.540;2022-11-15T14:40:54;99918.69;;;13.74
13304;BMP280;6720;51.958;4.540;2022-11-15T14:43:21;99913.22;;;13.79
13304;BMP280;6720;51.958;4.540;2022-11-15T14:45:46;99915.00;;;13.78
13304;BMP280;6720;51.958;4.540;2022-11-15T14:48:12;99901.53;;;13.66
13304;BMP280;6720;51.958;4.540;2022-11-15T14:50:37;99901.19;;;13.73
13304;BMP280;6720;51.958;4.540;2022-11-15T14:53:04;99905.69;;;13.71
13304;BMP280;6720;51.958;4.540;2022-11-15T14:55:35;99895.84;;;13.75
13304;BMP280;6720;51.958;4.540;2022-11-15T14:58:05;99899.50;;;13.72
13304;BMP280;6720;51.958;4.540;2022-11-15T15:00:33;99894.34;;;13.69
13304;BMP280;6720;51.958;4.540;2022-11-15T15:03:00;99889.38;;;13.63
13304;BMP280;6720;51.958;4.540;2022-11-15T15:05:33;99888.66;;;13.60
13304;BMP280;6720;51.958;4.540;2022-11-15T15:07:58;99883.53;;;13.57
13304;BMP280;6720;51.958;4.540;2022-11-15T15:10:27;99876.84;;;13.50
13304;BMP280;6720;51.958;4.540;2022-11-15T15:12:55;99883.47;;;13.58
13304;BMP280;6720;51.958;4.540;2022-11-15T15:15:24;99854.94;;;13.49
13304;BMP280;6720;51.958;4.540;2022-11-15T15:17:49;99870.13;;;13.63
13304;BMP280;6720;51.958;4.540;2022-11-15T15:20:15;99874.00;;;13.54
13304;BMP280;6720;51.958;4.540;2022-11-15T15:22:41;99879.84;;;13.61
13304;BMP280;6720;51.958;4.540;2022-11-15T15:27:47;99863.34;;;13.57
13304;BMP280;6720;51.958;4.540;2022-11-15T15:30:12;99872.03;;;13.59
13304;BMP280;6720;51.958;4.540;2022-11-15T15:32:38;99855.66;;;13.53
13304;BMP280;6720;51.958;4.540;2022-11-15T15:35:04;99862.72;;;13.52
13304;BMP280;6720;51.958;4.540;2022-11-15T15:37:30;99856.22;;;13.41
13304;BMP280;6720;51.958;4.540;2022-11-15T15:39:58;99859.03;;;13.36
13304;BMP280;6720;51.958;4.540;2022-11-15T15:42:24;99846.94;;;13.32
13304;BMP280;6720;51.958;4.540;2022-11-15T15:44:51;99859.44;;;13.27
13304;BMP280;6720;51.958;4.540;2022-11-15T15:47:42;99844.66;;;13.25
13304;BMP280;6720;51.958;4.540;2022-11-15T15:50:29;99834.88;;;13.08
13304;BMP280;6720;51.958;4.540;2022-11-15T15:52:57;99832.13;;;13.11
13304;BMP280;6720;51.958;4.540;2022-11-15T15:55:23;99829.44;;;13.13
13304;BMP280;6720;51.958;4.540;2022-11-15T15:57:49;99839.50;;;13.03
13304;BMP280;6720;51.958;4.540;2022-11-15T16:00:15;99841.31;;;13.01
13304;BMP280;6720;51.958;4.540;2022-11-15T16:02:41;99826.03;;;12.89
13304;BMP280;6720;51.958;4.540;2022-11-15T16:05:08;99839.63;;;13.00
13304;BMP280;6720;51.958;4.540;2022-11-15T16:07:34;99837.19;;;12.94
13304;BMP280;6720;51.958;4.540;2022-11-15T16:09:59;99830.44;;;12.89